createdAt,value
2018-11-21T00:04:02.102Z,9.63
2018-11-21T00:08:05.870Z,10.33
2018-11-21T00:12:09.502Z,9.63
2018-11-21T00:16:13.029Z,9.60
2018-11-21T00:20:16.737Z,9.67
2018-11-21T00:24:20.481Z,9.53
2018-11-21T00:28:24.303Z,10.17
2018-11-21T00:32:28.797Z,9.13
2018-11-21T00:36:32.570Z,9.80
2018-11-21T00:40:36.213Z,9.50
2018-11-21T00:44:39.845Z,10.47
2018-11-21T00:48:43.484Z,10.27
2018-11-21T00:52:47.123Z,9.60
2018-11-21T00:56:50.703Z,9.60
2018-11-21T01:00:54.329Z,10.10
2018-11-21T01:04:57.961Z,10.20
2018-11-21T01:09:01.668Z,10.93
2018-11-21T01:13:05.419Z,10.37
2018-11-21T01:17:09.022Z,9.93
2018-11-21T01:21:12.959Z,10.00
2018-11-21T01:25:16.685Z,10.20
2018-11-21T01:29:20.636Z,10.27
2018-11-21T01:33:24.388Z,10.87
2018-11-21T01:37:28.053Z,10.07
2018-11-21T01:41:31.918Z,11.67
2018-11-21T01:45:35.713Z,10.47
2018-11-21T01:49:39.655Z,11.23
2018-11-21T01:53:43.271Z,12.17
2018-11-21T01:57:46.884Z,11.60
2018-11-21T02:01:50.514Z,11.90
2018-11-21T02:05:54.110Z,10.33
2018-11-21T02:09:57.750Z,10.57
2018-11-21T02:14:01.338Z,10.30
2018-11-21T02:18:05.208Z,10.63
2018-11-21T02:22:08.974Z,10.37
2018-11-21T02:26:12.674Z,11.20
2018-11-21T02:30:16.318Z,10.50
2018-11-21T02:34:19.978Z,11.27
2018-11-21T02:38:23.571Z,11.43
2018-11-21T02:42:27.222Z,11.43
2018-11-21T02:46:30.836Z,12.23
2018-11-21T02:50:34.456Z,11.10
2018-11-21T02:54:38.056Z,12.47
2018-11-21T02:58:41.756Z,13.30
2018-11-21T03:02:45.411Z,12.77
2018-11-21T03:06:49.131Z,11.97
2018-11-21T03:10:52.776Z,12.77
2018-11-21T03:14:56.395Z,12.23
2018-11-21T03:19:00.854Z,11.73
2018-11-21T03:23:04.488Z,12.30
2018-11-21T03:27:08.161Z,11.40
2018-11-21T03:31:11.853Z,11.70
2018-11-21T03:35:15.476Z,12.20
2018-11-21T03:39:20.512Z,11.50
2018-11-21T03:43:24.219Z,11.27
2018-11-21T03:47:27.840Z,11.40
2018-11-21T03:51:31.467Z,11.47
2018-11-21T03:55:35.115Z,12.33
2018-11-21T03:59:38.737Z,12.50
2018-11-21T04:03:42.717Z,12.73
2018-11-21T04:07:46.387Z,12.40
2018-11-21T04:11:50.014Z,11.50
2018-11-21T04:15:53.645Z,13.00
2018-11-21T04:19:57.289Z,11.50
2018-11-21T04:24:00.943Z,13.37
2018-11-21T04:28:04.560Z,12.97
2018-11-21T04:32:08.190Z,13.87
2018-11-21T04:36:12.694Z,14.00
2018-11-21T04:40:16.276Z,13.13
2018-11-21T04:44:19.936Z,13.23
2018-11-21T04:48:23.528Z,12.80
2018-11-21T04:52:27.193Z,13.17
2018-11-21T04:56:30.787Z,13.57
2018-11-21T05:00:34.408Z,12.97
2018-11-21T05:04:38.084Z,12.80
2018-11-21T05:08:41.657Z,13.20
2018-11-21T05:12:45.321Z,13.17
2018-11-21T05:16:48.985Z,12.80
2018-11-21T05:20:52.619Z,12.20
2018-11-21T05:24:56.413Z,12.47
2018-11-21T05:29:00.108Z,13.87
2018-11-21T05:33:03.832Z,12.20
2018-11-21T05:37:07.449Z,12.37
2018-11-21T05:41:11.438Z,12.07
2018-11-21T05:45:15.228Z,11.43
2018-11-21T05:49:18.861Z,10.40
2018-11-21T05:53:23.799Z,11.10
2018-11-21T05:57:27.365Z,11.67
2018-11-21T06:01:31.357Z,10.47
2018-11-21T06:05:34.993Z,11.20
2018-11-21T06:09:38.846Z,10.30
2018-11-21T06:13:42.333Z,10.67
2018-11-21T06:17:48.325Z,9.33
2018-11-21T06:21:49.598Z,10.33
2018-11-21T06:25:53.411Z,10.50
2018-11-21T06:29:57.113Z,11.50
2018-11-21T06:34:00.743Z,10.80
2018-11-21T06:38:04.388Z,9.80
2018-11-21T06:42:08.041Z,11.77
2018-11-21T06:46:11.707Z,10.60
2018-11-21T06:50:15.514Z,10.53
2018-11-21T06:54:19.169Z,11.30
2018-11-21T06:58:22.807Z,11.00
2018-11-21T07:02:26.454Z,9.33
2018-11-21T07:06:30.064Z,10.47
2018-11-21T07:10:33.722Z,9.57
2018-11-21T07:14:37.307Z,9.87
2018-11-21T07:18:41.322Z,9.67
2018-11-21T07:22:44.937Z,10.90
2018-11-21T07:26:50.374Z,11.30
2018-11-21T07:30:53.907Z,10.87
2018-11-21T07:34:58.003Z,11.30
2018-11-21T07:39:02.483Z,11.53
2018-11-21T07:43:06.266Z,11.87
2018-11-21T07:47:09.928Z,12.57
2018-11-21T07:51:13.601Z,11.13
2018-11-21T07:55:17.218Z,10.70
2018-11-21T07:59:20.899Z,9.73
2018-11-21T08:03:25.734Z,10.83
2018-11-21T08:07:40.721Z,9.27
2018-11-21T08:12:21.695Z,10.17
2018-11-21T08:16:59.394Z,10.63
2018-11-21T08:21:21.989Z,10.07
2018-11-21T08:25:50.698Z,11.00
2018-11-21T08:29:54.365Z,11.20
2018-11-21T08:33:58.007Z,10.87
2018-11-21T08:38:01.637Z,10.13
2018-11-21T08:42:05.535Z,11.07
2018-11-21T08:46:10.281Z,10.80
2018-11-21T08:50:13.890Z,9.60
2018-11-21T08:54:17.565Z,9.33
2018-11-21T08:58:21.340Z,9.50
2018-11-21T09:02:25.072Z,9.73
2018-11-21T09:06:28.976Z,9.77
2018-11-21T09:14:36.218Z,8.80
2018-11-21T09:18:39.824Z,9.37
2018-11-21T09:22:43.421Z,8.93
2018-11-21T09:26:47.376Z,8.20
2018-11-21T09:30:51.020Z,8.07
2018-11-21T09:34:54.638Z,9.50
2018-11-21T09:38:58.262Z,8.37
2018-11-21T09:43:01.923Z,8.57
2018-11-21T09:47:05.535Z,9.80
2018-11-21T09:51:09.178Z,9.10
2018-11-21T09:55:13.005Z,9.60
2018-11-21T09:59:16.609Z,9.23
2018-11-21T10:03:22.400Z,9.63
2018-11-21T10:07:26.050Z,10.47
2018-11-21T10:11:30.451Z,8.93
2018-11-21T10:15:34.094Z,9.63
2018-11-21T10:19:37.711Z,8.67
2018-11-21T10:23:41.639Z,8.83
2018-11-21T10:27:45.885Z,8.40
2018-11-21T10:31:49.507Z,7.90
2018-11-21T10:35:53.203Z,7.97
2018-11-21T10:39:56.891Z,8.60
2018-11-21T10:44:00.473Z,8.97
2018-11-21T10:48:04.470Z,8.80
2018-11-21T10:52:08.125Z,8.53
2018-11-21T10:56:11.759Z,9.00
2018-11-21T11:00:34.416Z,9.20
2018-11-21T11:04:59.652Z,8.67
2018-11-21T11:09:24.863Z,9.13
2018-11-21T11:13:46.422Z,8.97
2018-11-21T11:18:07.642Z,8.17
2018-11-21T11:22:28.710Z,8.63
2018-11-21T11:26:49.762Z,8.93
2018-11-21T11:31:27.307Z,9.53
2018-11-21T11:36:05.172Z,9.33
2018-11-21T11:40:31.694Z,9.20
2018-11-21T11:45:03.077Z,8.87
2018-11-21T11:49:24.308Z,8.80
2018-11-21T11:53:45.319Z,9.33
2018-11-21T11:58:19.813Z,9.27
2018-11-21T12:02:34.743Z,8.83
2018-11-21T12:06:56.057Z,8.83
2018-11-21T12:11:17.075Z,8.83
2018-11-21T12:15:31.468Z,8.53
2018-11-21T12:19:56.890Z,9.27
2018-11-21T12:24:18.200Z,8.83
2018-11-21T12:28:39.467Z,8.20
2018-11-21T12:33:20.450Z,8.13
2018-11-21T12:37:41.718Z,8.80
2018-11-21T12:42:06.879Z,7.70
2018-11-21T12:46:41.622Z,8.83
2018-11-21T12:51:22.651Z,8.17
2018-11-21T12:55:43.705Z,9.00
2018-11-21T13:00:21.452Z,9.57
2018-11-21T13:04:46.659Z,10.17
2018-11-21T13:09:08.679Z,9.70
2018-11-21T13:13:30.192Z,9.50
2018-11-21T13:17:51.458Z,8.27
2018-11-21T13:22:20.233Z,8.60
2018-11-21T13:26:42.900Z,9.80
2018-11-21T13:31:23.530Z,9.03
2018-11-21T13:35:55.197Z,9.47
2018-11-21T13:40:20.542Z,8.80
2018-11-21T13:44:52.449Z,9.13
2018-11-21T13:49:13.926Z,9.10
2018-11-21T13:53:42.397Z,9.23
2018-11-21T13:57:46.284Z,9.67
2018-11-21T14:01:50.383Z,9.70
2018-11-21T14:05:54.039Z,10.63
2018-11-21T14:09:57.698Z,9.67
2018-11-21T14:14:01.554Z,10.30
2018-11-21T14:18:04.942Z,11.40
2018-11-21T14:22:08.565Z,11.70
2018-11-21T14:26:12.316Z,11.30
2018-11-21T14:30:17.001Z,12.10
2018-11-21T14:34:20.684Z,12.13
2018-11-21T14:38:24.352Z,11.50
2018-11-21T14:42:27.992Z,12.07
2018-11-21T14:46:31.653Z,12.63
2018-11-21T14:50:39.183Z,12.07
2018-11-21T14:54:39.834Z,12.53
2018-11-21T14:58:43.572Z,12.60
2018-11-21T15:02:47.240Z,12.87
2018-11-21T15:06:50.860Z,12.40
2018-11-21T15:10:54.634Z,12.67
2018-11-21T15:14:58.199Z,13.60
2018-11-21T15:19:01.887Z,13.50
2018-11-21T15:23:06.234Z,17.17
2018-11-21T15:27:10.163Z,20.90
2018-11-21T15:31:13.823Z,18.70
2018-11-21T15:35:18.098Z,20.10
2018-11-21T15:39:21.819Z,18.43
2018-11-21T15:43:31.617Z,19.63
2018-11-21T15:47:35.288Z,20.63
2018-11-21T15:51:39.928Z,20.50
2018-11-21T15:55:43.734Z,20.97
2018-11-21T15:59:47.370Z,20.50
2018-11-21T16:03:51.019Z,21.00
2018-11-21T16:07:54.632Z,17.43
2018-11-21T16:11:58.300Z,17.97
2018-11-21T16:16:02.429Z,18.77
2018-11-21T16:20:07.262Z,14.43
2018-11-21T16:24:11.011Z,14.53
2018-11-21T16:28:15.252Z,16.00
2018-11-21T16:32:18.836Z,14.23
2018-11-21T16:36:27.114Z,14.20
2018-11-21T16:40:27.710Z,14.40
2018-11-21T16:44:31.334Z,15.03
2018-11-21T16:48:34.961Z,14.70
2018-11-21T16:52:38.579Z,15.87
2018-11-21T16:56:42.228Z,15.47
2018-11-21T17:00:45.832Z,15.90
2018-11-21T17:04:49.481Z,15.67
2018-11-21T17:08:53.125Z,16.70
2018-11-21T17:12:56.782Z,17.67
2018-11-21T17:17:00.422Z,18.50
2018-11-21T17:21:04.070Z,19.20
2018-11-21T17:25:10.532Z,19.07
2018-11-21T17:29:14.190Z,19.43
2018-11-21T17:33:18.138Z,20.23
2018-11-21T17:37:21.737Z,21.50
2018-11-21T17:41:25.501Z,18.43
2018-11-21T17:45:29.366Z,21.83
2018-11-21T17:49:33.226Z,22.40
2018-11-21T17:53:46.678Z,20.00
2018-11-21T17:57:50.463Z,19.90
2018-11-21T18:01:54.391Z,21.07
2018-11-21T18:05:58.145Z,20.47
2018-11-21T18:10:01.938Z,22.87
2018-11-21T18:14:06.037Z,19.97
2018-11-21T18:18:09.629Z,19.33
2018-11-21T18:22:13.326Z,20.80
2018-11-21T18:26:18.478Z,19.63
2018-11-21T18:30:23.959Z,19.37
2018-11-21T18:34:27.544Z,19.43
2018-11-21T18:38:33.652Z,21.20
2018-11-21T18:42:37.321Z,21.13
2018-11-21T18:46:40.943Z,21.70
2018-11-21T18:50:44.630Z,21.93
2018-11-21T18:54:48.325Z,20.57
2018-11-21T18:59:19.343Z,21.90
2018-11-21T19:03:22.980Z,21.57
2018-11-21T19:07:26.660Z,22.53
2018-11-21T19:11:30.925Z,21.00
2018-11-21T19:15:34.540Z,22.77
2018-11-21T19:19:38.185Z,21.00
2018-11-21T19:23:41.987Z,20.83
2018-11-21T19:27:45.701Z,21.93
2018-11-21T19:31:49.513Z,23.67
2018-11-21T19:35:53.390Z,22.07
2018-11-21T19:39:57.178Z,21.57
2018-11-21T19:44:00.886Z,22.70
2018-11-21T19:48:04.937Z,20.83
2018-11-21T19:52:08.725Z,21.33
2018-11-21T19:56:12.329Z,19.87
2018-11-21T20:00:19.702Z,20.37
2018-11-21T20:04:23.452Z,21.70
2018-11-21T20:08:27.155Z,21.07
2018-11-21T20:12:30.935Z,21.40
2018-11-21T20:16:34.648Z,21.50
2018-11-21T20:20:38.504Z,21.17
2018-11-21T20:24:42.834Z,22.50
2018-11-21T20:28:46.442Z,20.23
2018-11-21T20:32:50.125Z,19.87
2018-11-21T20:36:53.820Z,19.67
2018-11-21T20:40:57.562Z,21.37
2018-11-21T20:45:01.267Z,22.17
2018-11-21T20:49:07.849Z,20.00
2018-11-21T20:53:08.822Z,22.47
2018-11-21T20:57:12.577Z,22.50
2018-11-21T21:01:16.299Z,22.00
2018-11-21T21:05:21.489Z,21.97
2018-11-21T21:09:25.170Z,19.73
2018-11-21T21:13:28.944Z,19.40
2018-11-21T21:17:32.505Z,21.03
2018-11-21T21:21:36.280Z,20.70
2018-11-21T21:25:39.936Z,20.13
2018-11-21T21:29:46.410Z,21.17
2018-11-21T21:33:50.232Z,20.57
2018-11-21T21:37:53.882Z,20.83
2018-11-21T21:41:57.513Z,21.53
2018-11-21T21:46:02.100Z,20.23
2018-11-21T21:50:07.482Z,21.40
2018-11-21T21:54:11.114Z,20.53
2018-11-21T21:58:14.888Z,22.43
2018-11-21T22:02:18.550Z,21.17
2018-11-21T22:06:22.284Z,21.77
2018-11-21T22:10:26.009Z,20.70
2018-11-21T22:14:29.650Z,20.97
2018-11-21T22:18:33.313Z,21.00
2018-11-21T22:22:36.950Z,20.23
2018-11-21T22:26:40.534Z,21.40
2018-11-21T22:30:44.251Z,20.90
2018-11-21T22:34:47.942Z,20.70
2018-11-21T22:38:51.632Z,20.73
2018-11-21T22:42:55.307Z,19.83
2018-11-21T22:46:59.018Z,21.10
2018-11-21T22:51:02.746Z,19.67
2018-11-21T22:55:07.099Z,21.80
2018-11-21T22:59:11.129Z,21.70
2018-11-21T23:03:15.849Z,23.00
2018-11-21T23:07:19.588Z,20.37
2018-11-21T23:11:23.262Z,20.97
2018-11-21T23:15:26.928Z,21.37
2018-11-21T23:19:30.609Z,21.07
2018-11-21T23:23:34.294Z,21.13
2018-11-21T23:27:38.312Z,22.27
2018-11-21T23:31:42.110Z,22.13
2018-11-21T23:35:45.782Z,22.00
2018-11-21T23:39:49.356Z,21.80
2018-11-21T23:43:53.030Z,21.73
2018-11-21T23:47:56.796Z,20.93
2018-11-21T23:52:00.475Z,22.67
2018-11-21T23:56:04.106Z,21.93
